Time;durP1;ratioP1;P1;durP2;ratioP2;P2;SDS_P1;SDS_P2;PMS_P1;PMS_P2;Temp;Humidity;BMP_temperature;BMP_pressure;BME280_temperature;BME280_humidity;BME280_pressure;Samples;Min_cycle;Max_cycle;Signal;HPM_P1;HPM_P2
2021/04/12 00:00:32;;;;;;;10.50;6.83;;;7.10;74.90;;;;;;5041979;28;21018;-42
2021/04/12 00:03:26;;;;;;;8.43;7.60;;;7.10;75.10;;;;;;5038714;28;21088;-42
2021/04/12 00:06:13;;;;;;;9.20;7.40;;;7.10;75.40;;;;;;5042051;28;20459;-42
2021/04/12 00:08:44;;;;;;;9.20;6.87;;;7.10;75.60;;;;;;5051160;28;20455;-41
2021/04/12 00:11:41;;;;;;;9.40;7.93;;;7.10;75.70;;;;;;5039752;28;20632;-42
2021/04/12 00:14:19;;;;;;;10.87;7.70;;;7.10;75.90;;;;;;5033247;28;20542;-42
2021/04/12 00:17:03;;;;;;;9.90;7.77;;;7.10;75.80;;;;;;5039348;28;20518;-42
2021/04/12 00:19:34;;;;;;;10.10;8.07;;;7.20;76.00;;;;;;5039845;28;20467;-42
2021/04/12 00:22:26;;;;;;;9.80;8.17;;;7.20;75.60;;;;;;5039715;28;20508;-42
2021/04/12 00:25:09;;;;;;;10.00;7.70;;;7.10;75.30;;;;;;5040952;28;20553;-42
2021/04/12 00:27:49;;;;;;;15.23;8.37;;;7.10;75.50;;;;;;5039093;28;20534;-42
2021/04/12 00:30:30;;;;;;;9.83;7.90;;;7.10;75.30;;;;;;5041745;28;20948;-42
2021/04/12 00:33:07;;;;;;;10.20;8.30;;;7.10;75.00;;;;;;5054936;28;20455;-42
2021/04/12 00:35:49;;;;;;;12.60;8.83;;;7.10;75.30;;;;;;5034756;28;20451;-42
2021/04/12 00:38:22;;;;;;;12.53;10.23;;;7.20;75.20;;;;;;5038765;28;20461;-42
2021/04/12 00:41:22;;;;;;;12.00;9.93;;;7.20;75.30;;;;;;5038572;28;20844;-42
2021/04/12 00:43:54;;;;;;;11.30;9.63;;;7.10;75.30;;;;;;5040121;28;20465;-42
2021/04/12 00:46:52;;;;;;;12.17;10.90;;;7.10;75.60;;;;;;5037064;28;20824;-42
2021/04/12 00:49:30;;;;;;;12.80;9.67;;;7.10;75.70;;;;;;5036715;28;20538;-42
2021/04/12 00:52:38;;;;;;;13.07;10.00;;;7.10;75.80;;;;;;5039872;28;20462;-42
2021/04/12 00:55:16;;;;;;;10.97;9.70;;;7.10;76.00;;;;;;5041645;28;20865;-42
2021/04/12 00:57:57;;;;;;;15.73;11.23;;;7.10;76.00;;;;;;5036646;28;20674;-42
2021/04/12 01:00:28;;;;;;;13.30;9.60;;;7.10;75.90;;;;;;5040607;28;20826;-42
2021/04/12 01:03:11;;;;;;;11.93;9.77;;;7.10;75.80;;;;;;5043869;28;20466;-42
2021/04/12 01:06:11;;;;;;;12.83;10.27;;;7.10;75.80;;;;;;5041349;28;20463;-42
2021/04/12 01:09:03;;;;;;;12.23;11.00;;;7.10;75.80;;;;;;5038750;28;20489;-42
2021/04/12 01:11:42;;;;;;;14.33;10.63;;;7.20;75.20;;;;;;5030724;28;20467;-42
2021/04/12 01:14:29;;;;;;;13.90;11.00;;;7.10;75.20;;;;;;5034358;28;20466;-42
2021/04/12 01:17:29;;;;;;;12.53;10.23;;;7.10;75.40;;;;;;5042484;28;20482;-42
2021/04/12 01:20:13;;;;;;;12.30;11.00;;;7.10;75.50;;;;;;5043243;28;20503;-42
2021/04/12 01:23:04;;;;;;;15.83;10.27;;;7.10;75.40;;;;;;5036684;28;20487;-42
2021/04/12 01:26:09;;;;;;;12.30;11.00;;;7.00;75.60;;;;;;5041871;28;20458;-42
2021/04/12 01:28:59;;;;;;;15.97;10.90;;;7.00;75.70;;;;;;5041181;28;20458;-42
2021/04/12 01:32:01;;;;;;;12.23;9.90;;;7.10;75.80;;;;;;5039177;28;20459;-42
2021/04/12 01:35:01;;;;;;;14.33;10.87;;;7.00;75.50;;;;;;5035779;28;20497;-42
2021/04/12 01:37:47;;;;;;;12.00;9.63;;;7.00;75.40;;;;;;5035081;28;20459;-42
2021/04/12 01:40:25;;;;;;;11.93;8.97;;;7.00;75.40;;;;;;5041531;28;20971;-42
2021/04/12 01:42:54;;;;;;;12.40;10.20;;;7.00;75.60;;;;;;5042627;28;20494;-42
2021/04/12 01:45:49;;;;;;;12.87;9.57;;;7.00;75.50;;;;;;5040946;28;20465;-42
2021/04/12 01:48:38;;;;;;;13.57;10.10;;;7.00;75.40;;;;;;5022823;28;20454;-42
2021/04/12 01:51:35;;;;;;;11.00;9.90;;;7.00;75.30;;;;;;5037081;28;20458;-42
2021/04/12 01:54:26;;;;;;;11.77;9.77;;;7.00;75.20;;;;;;5036946;28;20464;-42
2021/04/12 01:57:11;;;;;;;12.37;9.83;;;7.10;74.40;;;;;;5038705;28;20470;-42
2021/04/12 02:00:05;;;;;;;13.60;9.00;;;7.10;74.30;;;;;;5038921;28;20549;-42
2021/04/12 02:02:50;;;;;;;10.03;8.63;;;7.10;74.20;;;;;;5040120;28;20497;-42
2021/04/12 02:06:03;;;;;;;10.40;9.37;;;7.00;74.20;;;;;;5038345;28;20457;-42
2021/04/12 02:08:55;;;;;;;13.70;9.03;;;6.90;74.50;;;;;;5037588;28;20451;-42
2021/04/12 02:11:33;;;;;;;11.80;10.00;;;7.00;74.00;;;;;;5037164;28;20455;-42
2021/04/12 02:14:17;;;;;;;11.40;8.17;;;7.00;74.20;;;;;;5047587;28;20480;-42
2021/04/12 02:17:23;;;;;;;9.60;8.60;;;7.00;74.10;;;;;;5047321;28;21070;-42
2021/04/12 02:20:11;;;;;;;9.87;8.90;;;6.90;74.30;;;;;;5043607;28;20736;-42
2021/04/12 02:23:05;;;;;;;9.87;8.40;;;6.90;74.30;;;;;;5039249;28;20478;-42
2021/04/12 02:25:32;;;;;;;11.67;9.30;;;6.90;74.10;;;;;;5045897;28;20461;-42
2021/04/12 02:28:55;;;;;;;9.10;8.20;;;6.90;74.20;;;;;;5053666;28;20469;-41
2021/04/12 02:31:38;;;;;;;9.77;8.20;;;6.90;73.70;;;;;;5005716;28;20467;-40
2021/04/12 02:34:38;;;;;;;9.10;8.10;;;6.90;73.70;;;;;;5022646;28;20543;-40
2021/04/12 02:37:23;;;;;;;9.40;8.40;;;6.80;73.70;;;;;;5036651;28;20967;-40
2021/04/12 02:40:21;;;;;;;9.63;8.57;;;6.90;73.40;;;;;;5036303;28;20547;-40
2021/04/12 02:43:26;;;;;;;13.00;8.60;;;6.80;73.00;;;;;;5029319;28;20495;-40
2021/04/12 02:46:13;;;;;;;8.10;6.87;;;6.80;73.10;;;;;;5031257;28;20461;-40
2021/04/12 02:48:54;;;;;;;9.47;7.70;;;6.80;73.20;;;;;;5040327;28;20480;-40
2021/04/12 02:51:31;;;;;;;10.77;8.03;;;6.80;73.40;;;;;;5040598;28;20492;-40
2021/04/12 02:54:06;;;;;;;7.90;7.17;;;6.70;73.00;;;;;;5037423;28;20460;-40
2021/04/12 02:56:59;;;;;;;9.50;8.43;;;6.70;73.10;;;;;;5043660;28;20490;-40
2021/04/12 02:59:40;;;;;;;8.70;7.50;;;6.70;73.30;;;;;;5040353;28;20875;-40
2021/04/12 03:02:24;;;;;;;7.70;6.53;;;6.70;73.10;;;;;;5045209;28;20493;-40
2021/04/12 03:05:09;;;;;;;10.70;6.77;;;6.70;73.10;;;;;;5043534;28;20450;-41
2021/04/12 03:08:03;;;;;;;9.50;7.70;;;6.70;72.70;;;;;;5040524;28;20460;-40
2021/04/12 03:11:07;;;;;;;10.83;6.87;;;6.70;72.90;;;;;;5043945;28;20447;-40
2021/04/12 03:14:04;;;;;;;6.90;6.20;;;6.70;72.50;;;;;;5039020;28;20462;-40
2021/04/12 03:16:55;;;;;;;10.00;7.60;;;6.70;72.60;;;;;;5040844;28;20640;-40
2021/04/12 03:19:55;;;;;;;9.23;7.83;;;6.70;72.80;;;;;;5044222;28;21080;-40
2021/04/12 03:22:38;;;;;;;7.27;6.40;;;6.70;72.80;;;;;;5036116;28;20486;-40
2021/04/12 03:25:23;;;;;;;7.57;5.87;;;6.60;72.50;;;;;;5043770;28;20552;-40
2021/04/12 03:28:22;;;;;;;8.30;6.43;;;6.60;72.40;;;;;;5046034;28;20536;-40
2021/04/12 03:31:23;;;;;;;7.43;6.60;;;6.60;72.50;;;;;;5014564;28;20505;-41
2021/04/12 03:34:30;;;;;;;8.07;6.53;;;6.60;72.40;;;;;;5043825;28;20537;-40
2021/04/12 03:37:22;;;;;;;8.80;6.60;;;6.60;72.40;;;;;;5000691;28;20462;-40
2021/04/12 03:40:08;;;;;;;11.40;6.50;;;6.60;72.30;;;;;;5043070;28;20450;-40
2021/04/12 03:42:59;;;;;;;7.43;6.73;;;6.60;72.10;;;;;;5042512;28;20489;-40
2021/04/12 03:45:33;;;;;;;7.80;6.60;;;6.50;72.30;;;;;;5046511;28;20459;-40
2021/04/12 03:48:22;;;;;;;7.50;6.13;;;6.50;72.30;;;;;;5058408;28;20677;-40
2021/04/12 03:51:38;;;;;;;9.70;6.77;;;6.50;71.60;;;;;;5039858;28;20766;-40
2021/04/12 03:54:17;;;;;;;9.00;6.03;;;6.50;72.10;;;;;;5002396;28;20465;-40
2021/04/12 03:56:52;;;;;;;9.60;6.53;;;6.40;72.10;;;;;;5025364;28;20502;-40
2021/04/12 03:59:46;;;;;;;8.60;6.63;;;6.40;72.30;;;;;;5039617;28;20457;-40
2021/04/12 04:02:44;;;;;;;7.07;6.00;;;6.50;71.90;;;;;;5038627;28;20484;-40
2021/04/12 04:05:28;;;;;;;11.10;8.40;;;6.50;72.40;;;;;;5039300;28;20459;-40
2021/04/12 04:08:19;;;;;;;8.23;6.97;;;6.50;72.60;;;;;;5040448;28;20458;-40
2021/04/12 04:11:00;;;;;;;12.20;7.60;;;6.40;72.80;;;;;;5037279;28;21070;-40
2021/04/12 04:14:15;;;;;;;8.97;7.70;;;6.30;72.90;;;;;;5038322;28;21020;-40
2021/04/12 04:17:06;;;;;;;7.17;6.40;;;6.30;72.70;;;;;;5022240;28;20482;-40
2021/04/12 04:19:51;;;;;;;9.13;6.77;;;6.30;72.90;;;;;;5038325;28;20541;-40
2021/04/12 04:22:44;;;;;;;10.37;6.80;;;6.30;73.00;;;;;;5042262;28;20489;-40
2021/04/12 04:26:02;;;;;;;7.93;6.60;;;6.30;73.40;;;;;;5042154;28;20457;-41
2021/04/12 04:28:42;;;;;;;7.77;6.37;;;6.30;72.70;;;;;;5045499;28;20517;-40
2021/04/12 04:31:24;;;;;;;8.10;7.13;;;6.20;72.90;;;;;;5041881;28;20947;-40
2021/04/12 04:34:07;;;;;;;7.27;6.40;;;6.20;73.10;;;;;;5037234;28;21015;-40
2021/04/12 04:36:54;;;;;;;9.17;6.77;;;6.30;73.10;;;;;;5040337;28;20454;-41
2021/04/12 04:39:32;;;;;;;9.00;7.20;;;6.20;73.20;;;;;;5041963;28;20456;-40
2021/04/12 04:42:40;;;;;;;10.53;6.40;;;6.20;73.20;;;;;;5049201;28;20947;-40
2021/04/12 04:45:30;;;;;;;9.27;6.80;;;6.30;73.10;;;;;;5039845;28;20482;-40
2021/04/12 04:48:44;;;;;;;9.00;6.90;;;6.30;73.00;;;;;;5037480;28;20486;-40
2021/04/12 04:51:34;;;;;;;9.20;7.37;;;6.30;72.90;;;;;;5008309;28;20471;-40
2021/04/12 04:54:32;;;;;;;9.43;6.27;;;6.30;72.60;;;;;;5042641;28;20467;-40
2021/04/12 04:57:35;;;;;;;8.10;6.03;;;6.20;72.00;;;;;;5041994;28;20462;-40
2021/04/12 05:00:09;;;;;;;8.17;6.83;;;6.20;71.90;;;;;;5041558;28;20827;-40
2021/04/12 05:02:42;;;;;;;8.23;6.30;;;6.20;72.30;;;;;;5033150;28;20487;-40
2021/04/12 05:05:30;;;;;;;7.93;7.03;;;6.10;72.60;;;;;;5037531;28;20444;-40
2021/04/12 05:08:18;;;;;;;9.13;6.70;;;6.20;72.40;;;;;;5036526;28;20544;-40
2021/04/12 05:11:21;;;;;;;9.03;5.70;;;6.20;72.20;;;;;;5039870;28;20497;-40
2021/04/12 05:13:47;;;;;;;6.23;5.17;;;6.30;71.90;;;;;;5035921;28;20462;-40
2021/04/12 05:16:38;;;;;;;6.13;5.53;;;6.20;71.30;;;;;;5032080;28;20848;-40
2021/04/12 05:19:35;;;;;;;6.93;5.90;;;6.20;71.30;;;;;;5038891;28;20449;-40
2021/04/12 05:22:16;;;;;;;6.17;5.53;;;6.10;71.60;;;;;;5037270;28;20486;-40
2021/04/12 05:24:51;;;;;;;7.73;6.10;;;6.10;71.40;;;;;;5039292;28;20973;-40
2021/04/12 05:27:48;;;;;;;9.70;5.50;;;6.20;71.30;;;;;;5036594;28;20455;-40
2021/04/12 05:30:49;;;;;;;6.70;5.90;;;6.20;71.50;;;;;;5036555;28;22217;-40
2021/04/12 05:33:37;;;;;;;7.47;6.37;;;6.20;71.30;;;;;;5035803;28;21019;-40
2021/04/12 05:36:26;;;;;;;8.23;6.47;;;6.20;71.40;;;;;;5035268;28;20982;-40
2021/04/12 05:39:22;;;;;;;7.40;5.70;;;6.20;71.40;;;;;;5035482;28;20471;-40
2021/04/12 05:42:11;;;;;;;6.70;5.80;;;6.30;71.10;;;;;;5035879;28;20575;-40
2021/04/12 05:45:09;;;;;;;9.23;6.40;;;6.30;70.30;;;;;;5036901;28;20458;-40
2021/04/12 05:47:57;;;;;;;10.30;6.30;;;6.30;70.20;;;;;;5038182;28;20454;-40
2021/04/12 05:50:49;;;;;;;9.10;7.07;;;6.30;70.60;;;;;;5039659;28;20464;-40
2021/04/12 05:53:26;;;;;;;9.43;6.00;;;6.30;70.70;;;;;;5039240;28;20467;-40
2021/04/12 05:56:30;;;;;;;9.03;7.60;;;6.40;70.60;;;;;;5040347;28;20959;-40
2021/04/12 05:59:21;;;;;;;8.93;6.73;;;6.30;70.80;;;;;;5042379;28;20556;-40
2021/04/12 06:02:09;;;;;;;7.43;6.70;;;6.30;70.80;;;;;;5039179;28;21002;-40
2021/04/12 06:04:53;;;;;;;8.40;6.60;;;6.40;70.40;;;;;;5039489;28;20949;-40
2021/04/12 06:07:22;;;;;;;9.67;6.97;;;6.40;70.30;;;;;;5042059;28;20477;-40
2021/04/12 06:10:25;;;;;;;10.23;6.67;;;6.50;70.10;;;;;;5042009;28;20959;-40
2021/04/12 06:13:22;;;;;;;10.97;6.50;;;6.50;69.80;;;;;;5039506;28;20468;-40
2021/04/12 06:16:07;;;;;;;9.67;6.40;;;6.60;69.90;;;;;;5040579;28;20466;-40
2021/04/12 06:19:01;;;;;;;8.90;6.03;;;6.50;69.10;;;;;;5037429;28;20966;-40
2021/04/12 06:22:18;;;;;;;9.13;5.80;;;6.60;69.40;;;;;;5041211;28;20849;-40
2021/04/12 06:25:22;;;;;;;16.00;7.27;;;6.60;68.90;;;;;;5019175;28;20462;-40
2021/04/12 06:28:25;;;;;;;10.40;7.43;;;6.70;69.10;;;;;;5042314;28;20454;-40
2021/04/12 06:31:22;;;;;;;10.17;7.60;;;6.70;69.50;;;;;;5039951;28;20842;-40
2021/04/12 06:33:54;;;;;;;11.50;8.43;;;6.80;69.20;;;;;;5044110;28;20458;-40
2021/04/12 06:36:29;;;;;;;11.30;7.63;;;6.80;69.50;;;;;;5040864;28;20447;-40
2021/04/12 06:39:32;;;;;;;7.30;6.17;;;6.90;69.50;;;;;;5042938;28;20835;-40
2021/04/12 06:42:22;;;;;;;9.10;7.03;;;7.00;68.60;;;;;;5040741;28;20508;-40
2021/04/12 06:45:19;;;;;;;8.00;6.47;;;7.00;68.60;;;;;;5040129;28;20946;-40
2021/04/12 06:48:23;;;;;;;10.93;8.07;;;7.00;68.60;;;;;;5042075;28;20496;-40
2021/04/12 06:51:21;;;;;;;9.77;6.80;;;6.90;68.10;;;;;;5038468;28;20462;-40
2021/04/12 06:54:09;;;;;;;16.37;8.00;;;6.90;67.90;;;;;;5043180;28;20462;-40
2021/04/12 06:56:56;;;;;;;7.90;6.50;;;6.90;68.60;;;;;;5046035;28;20465;-40
2021/04/12 06:59:47;;;;;;;9.90;7.20;;;6.90;68.80;;;;;;5044625;28;20757;-40
2021/04/12 07:02:54;;;;;;;10.40;9.17;;;6.90;68.90;;;;;;5044402;28;20490;-40
2021/04/12 07:05:34;;;;;;;9.03;7.10;;;7.00;68.50;;;;;;5046718;28;20463;-40
2021/04/12 07:08:20;;;;;;;10.70;7.83;;;7.00;68.40;;;;;;5047066;28;20459;-40
2021/04/12 07:11:04;;;;;;;13.53;8.33;;;7.10;68.30;;;;;;5040615;28;20457;-40
2021/04/12 07:13:59;;;;;;;11.03;7.60;;;7.10;68.00;;;;;;5035711;28;20454;-40
2021/04/12 07:16:56;;;;;;;8.30;7.30;;;7.20;67.90;;;;;;5042802;28;20687;-40
2021/04/12 07:20:03;;;;;;;12.20;7.60;;;7.30;68.00;;;;;;5036964;28;20459;-40
2021/04/12 07:22:39;;;;;;;11.00;8.10;;;7.30;67.40;;;;;;5044610;28;20517;-40
2021/04/12 07:25:17;;;;;;;13.27;7.23;;;7.30;67.40;;;;;;5042323;28;20463;-40
2021/04/12 07:27:58;;;;;;;13.77;7.87;;;7.40;67.10;;;;;;5043257;28;20465;-40
2021/04/12 07:30:56;;;;;;;10.57;8.37;;;7.40;66.70;;;;;;5039351;28;20444;-40
2021/04/12 07:33:37;;;;;;;9.97;7.43;;;7.30;66.30;;;;;;5040272;28;20455;-40
2021/04/12 07:36:37;;;;;;;14.70;9.03;;;7.30;67.10;;;;;;5038145;28;21185;-40
2021/04/12 07:39:16;;;;;;;15.00;9.33;;;7.40;67.30;;;;;;5040698;28;20471;-40
2021/04/12 07:42:20;;;;;;;12.33;8.27;;;7.40;67.30;;;;;;5041684;28;20493;-40
2021/04/12 07:45:22;;;;;;;10.03;8.80;;;7.40;67.20;;;;;;5040066;28;20464;-40
2021/04/12 07:47:54;;;;;;;9.93;7.87;;;7.40;67.10;;;;;;5037016;28;20588;-40
2021/04/12 07:50:45;;;;;;;18.23;11.20;;;7.50;67.00;;;;;;5039585;28;20683;-40
2021/04/12 07:53:17;;;;;;;11.37;9.87;;;7.50;67.30;;;;;;5040699;28;20472;-40
2021/04/12 07:56:09;;;;;;;10.23;9.10;;;7.50;67.20;;;;;;5041038;28;20459;-40
2021/04/12 07:58:59;;;;;;;15.67;8.10;;;7.60;67.00;;;;;;5042788;28;20458;-40
2021/04/12 08:01:47;;;;;;;14.20;8.67;;;7.60;65.50;;;;;;5045538;28;20513;-40
2021/04/12 08:04:35;;;;;;;13.60;9.10;;;7.60;65.90;;;;;;5038099;28;20459;-40
2021/04/12 08:07:23;;;;;;;11.60;8.57;;;7.70;66.00;;;;;;5042270;28;20473;-40
2021/04/12 08:10:10;;;;;;;9.83;8.13;;;7.60;65.50;;;;;;5037780;28;20870;-40
2021/04/12 08:13:17;;;;;;;12.00;8.67;;;7.70;65.00;;;;;;5043603;28;20458;-40
2021/04/12 08:16:05;;;;;;;8.60;7.70;;;7.80;65.20;;;;;;5023027;28;20502;-40
2021/04/12 08:18:34;;;;;;;8.30;7.60;;;8.00;64.80;;;;;;5033402;28;21019;-40
2021/04/12 08:21:26;;;;;;;7.97;6.73;;;8.10;63.60;;;;;;5039314;28;20998;-40
2021/04/12 08:24:26;;;;;;;10.00;7.10;;;8.20;63.50;;;;;;5042438;28;20465;-41
2021/04/12 08:27:11;;;;;;;7.40;5.63;;;8.30;63.10;;;;;;5039025;28;20458;-40
2021/04/12 08:29:56;;;;;;;4.57;4.17;;;8.30;60.40;;;;;;5045600;28;20537;-40
2021/04/12 08:32:47;;;;;;;4.70;4.30;;;8.40;59.70;;;;;;5040486;28;20553;-40
2021/04/12 08:35:51;;;;;;;4.60;4.20;;;8.40;59.40;;;;;;5036757;28;20509;-41
2021/04/12 08:38:29;;;;;;;6.40;4.80;;;8.40;59.40;;;;;;5044795;28;20465;-40
2021/04/12 08:41:27;;;;;;;6.73;4.37;;;8.30;60.30;;;;;;5045441;28;20454;-40
2021/04/12 08:44:35;;;;;;;3.80;3.50;;;8.30;59.70;;;;;;5040543;28;20861;-40
2021/04/12 08:47:19;;;;;;;5.63;3.90;;;8.60;59.30;;;;;;5035723;28;20447;-41
2021/04/12 08:50:08;;;;;;;5.17;4.00;;;9.00;58.90;;;;;;5045279;28;20500;-40
2021/04/12 08:52:58;;;;;;;5.43;4.47;;;9.30;57.00;;;;;;5040366;28;20457;-41
2021/04/12 08:55:45;;;;;;;7.27;4.40;;;9.40;55.30;;;;;;5038672;28;20977;-41
2021/04/12 08:58:36;;;;;;;4.53;3.77;;;9.60;55.80;;;;;;5040279;28;20552;-41
2021/04/12 09:01:17;;;;;;;6.63;3.50;;;10.10;55.50;;;;;;5044184;28;20458;-41
2021/04/12 09:04:13;;;;;;;4.77;4.20;;;10.60;52.90;;;;;;5041313;28;20547;-41
2021/04/12 09:06:39;;;;;;;10.63;3.67;;;10.90;51.90;;;;;;5041219;28;21026;-41
2021/04/12 09:09:36;;;;;;;7.37;3.73;;;11.00;51.40;;;;;;5037282;28;20451;-40
2021/04/12 09:12:20;;;;;;;4.30;3.90;;;10.80;51.20;;;;;;5042616;28;20455;-41
2021/04/12 09:15:24;;;;;;;4.47;3.83;;;10.60;51.50;;;;;;5034814;28;20471;-41
2021/04/12 09:18:10;;;;;;;3.13;2.70;;;10.60;52.20;;;;;;5042478;28;20573;-41
2021/04/12 09:21:20;;;;;;;3.43;3.13;;;10.40;50.60;;;;;;5038513;28;20462;-41
2021/04/12 09:24:19;;;;;;;3.60;3.27;;;10.20;51.90;;;;;;5041355;28;20494;-41
2021/04/12 09:27:13;;;;;;;4.53;3.60;;;10.00;52.80;;;;;;5037816;28;20457;-40
2021/04/12 09:29:54;;;;;;;3.80;3.40;;;9.90;52.40;;;;;;5044172;28;20439;-41
2021/04/12 09:32:48;;;;;;;4.57;2.97;;;9.70;53.20;;;;;;5041256;28;20530;-40
2021/04/12 09:35:33;;;;;;;4.33;3.50;;;9.60;53.80;;;;;;5040771;28;20463;-41
2021/04/12 09:38:02;;;;;;;2.80;2.60;;;9.40;54.20;;;;;;5041727;28;20939;-41
2021/04/12 09:40:43;;;;;;;3.80;3.10;;;9.70;52.60;;;;;;5045896;28;20497;-41
2021/04/12 09:43:47;;;;;;;3.50;2.43;;;10.40;50.90;;;;;;5037835;28;20550;-41
2021/04/12 09:46:37;;;;;;;4.30;2.70;;;11.50;49.10;;;;;;5043063;28;20486;-41
2021/04/12 09:49:14;;;;;;;4.13;3.10;;;12.00;46.70;;;;;;5045904;28;20439;-41
2021/04/12 09:52:13;;;;;;;4.00;2.80;;;12.00;47.70;;;;;;5041152;28;20915;-41
2021/04/12 09:55:20;;;;;;;4.63;3.00;;;11.70;48.90;;;;;;5043298;28;20727;-41
2021/04/12 09:57:56;;;;;;;3.03;2.73;;;11.30;49.50;;;;;;5044919;28;20469;-41
2021/04/12 10:00:52;;;;;;;2.77;2.57;;;11.10;50.20;;;;;;5039685;28;20530;-42
2021/04/12 10:03:40;;;;;;;4.10;2.30;;;10.90;49.80;;;;;;5036926;28;20492;-41
2021/04/12 10:06:41;;;;;;;3.47;1.63;;;11.30;48.70;;;;;;5043707;28;20445;-41
2021/04/12 10:09:10;;;;;;;4.63;1.87;;;11.70;47.50;;;;;;5021011;28;20545;-41
2021/04/12 10:11:49;;;;;;;4.47;2.50;;;12.00;46.90;;;;;;5038982;28;20990;-41
2021/04/12 10:14:29;;;;;;;1.90;1.70;;;12.00;45.80;;;;;;5035601;28;21003;-42
2021/04/12 10:17:06;;;;;;;2.43;1.47;;;11.90;46.10;;;;;;5040096;28;20545;-42
2021/04/12 10:19:49;;;;;;;3.00;1.70;;;11.80;45.70;;;;;;5038735;28;20461;-42
2021/04/12 10:22:19;;;;;;;1.73;1.40;;;11.70;44.70;;;;;;5041984;28;20828;-42
2021/04/12 10:24:51;;;;;;;2.20;1.30;;;11.50;45.10;;;;;;5042946;28;21042;-41
2021/04/12 10:27:27;;;;;;;1.90;1.60;;;11.40;46.20;;;;;;5036585;28;20457;-41
2021/04/12 10:30:21;;;;;;;3.53;2.33;;;11.20;47.20;;;;;;5045726;28;20466;-41
2021/04/12 10:33:00;;;;;;;4.13;1.80;;;11.10;47.70;;;;;;5057565;28;20502;-41
2021/04/12 10:35:32;;;;;;;1.67;1.57;;;11.00;48.50;;;;;;5047010;28;20462;-42
2021/04/12 10:38:19;;;;;;;2.17;1.97;;;10.90;48.40;;;;;;5040513;28;20463;-41
2021/04/12 10:41:23;;;;;;;7.53;2.77;;;10.80;48.10;;;;;;5043212;28;20485;-41
2021/04/12 10:44:14;;;;;;;2.27;1.60;;;11.20;47.90;;;;;;5043344;28;20435;-41
2021/04/12 10:46:59;;;;;;;2.27;1.40;;;11.90;45.20;;;;;;5047819;28;20957;-41
2021/04/12 10:49:53;;;;;;;2.07;1.00;;;12.10;41.10;;;;;;5045621;28;20466;-41
2021/04/12 10:52:25;;;;;;;3.10;1.30;;;11.90;41.00;;;;;;5044777;28;21019;-41
2021/04/12 10:55:13;;;;;;;1.40;1.30;;;11.60;42.40;;;;;;5045937;28;20450;-41
2021/04/12 10:57:46;;;;;;;2.10;1.60;;;11.30;43.70;;;;;;5041685;28;20463;-41
2021/04/12 11:00:13;;;;;;;2.47;1.60;;;11.00;45.30;;;;;;5045120;28;20533;-41
2021/04/12 11:02:55;;;;;;;2.93;2.37;;;10.80;46.80;;;;;;5040496;28;20582;-41
2021/04/12 11:05:26;;;;;;;3.80;1.87;;;10.60;48.70;;;;;;5047381;28;21020;-41
2021/04/12 11:08:11;;;;;;;3.50;1.73;;;10.40;48.70;;;;;;5043143;28;20441;-41
2021/04/12 11:10:50;;;;;;;3.27;1.93;;;10.30;49.40;;;;;;5042291;28;20988;-41
2021/04/12 11:13:47;;;;;;;2.83;1.83;;;10.20;49.90;;;;;;5041127;28;20826;-41
2021/04/12 11:16:31;;;;;;;2.63;1.70;;;10.10;50.00;;;;;;5044071;28;20559;-41
2021/04/12 11:19:17;;;;;;;3.67;1.80;;;10.10;49.20;;;;;;5040214;28;20498;-41
2021/04/12 11:22:12;;;;;;;2.10;1.73;;;10.10;50.10;;;;;;5041767;28;20450;-41
2021/04/12 11:24:56;;;;;;;4.10;1.57;;;10.20;50.90;;;;;;5041731;28;20450;-41
2021/04/12 11:27:54;;;;;;;2.37;2.17;;;10.30;49.00;;;;;;5046314;28;20435;-41
2021/04/12 11:30:29;;;;;;;1.87;1.10;;;10.60;46.70;;;;;;5060059;28;20882;-41
2021/04/12 11:33:15;;;;;;;1.07;1.00;;;10.80;45.20;;;;;;5046219;28;20530;-41
2021/04/12 11:36:14;;;;;;;2.10;1.23;;;10.90;43.90;;;;;;5046531;28;21024;-41
2021/04/12 11:38:58;;;;;;;0.93;0.93;;;11.00;43.20;;;;;;5045453;28;21045;-41
2021/04/12 11:41:33;;;;;;;1.27;1.10;;;11.30;43.70;;;;;;5041786;28;20456;-41
2021/04/12 11:44:06;;;;;;;2.10;1.23;;;11.50;42.40;;;;;;5048761;28;20442;-41
2021/04/12 11:47:11;;;;;;;2.80;1.50;;;11.80;43.60;;;;;;5047863;28;20550;-41
2021/04/12 11:49:59;;;;;;;2.50;1.27;;;12.00;42.90;;;;;;5046143;28;20443;-41
2021/04/12 11:52:47;;;;;;;1.57;1.47;;;12.20;43.60;;;;;;5040881;28;20470;-42
2021/04/12 11:55:33;;;;;;;2.13;1.10;;;12.40;44.10;;;;;;5041966;28;20447;-42
2021/04/12 11:58:15;;;;;;;2.30;1.50;;;12.60;43.80;;;;;;5043769;28;20464;-41
2021/04/12 12:01:00;;;;;;;2.20;1.33;;;12.60;42.80;;;;;;5043770;28;20555;-41
2021/04/12 12:03:46;;;;;;;2.17;1.53;;;12.80;43.80;;;;;;5038509;28;20487;-41
2021/04/12 12:06:30;;;;;;;1.80;1.70;;;12.90;44.80;;;;;;5041716;28;20458;-41
2021/04/12 12:09:03;;;;;;;2.17;1.77;;;13.10;44.10;;;;;;5025921;28;20487;-41
2021/04/12 12:11:40;;;;;;;1.37;1.27;;;13.30;44.20;;;;;;5042512;28;20463;-41
2021/04/12 12:14:29;;;;;;;2.73;1.80;;;13.40;42.20;;;;;;5048132;28;20553;-41
2021/04/12 12:16:57;;;;;;;1.40;1.30;;;13.40;42.50;;;;;;5026496;28;21078;-41
2021/04/12 12:19:34;;;;;;;2.50;1.60;;;13.20;41.00;;;;;;5041471;28;21018;-41
2021/04/12 12:22:13;;;;;;;1.67;1.47;;;13.00;41.00;;;;;;5038383;28;20490;-41
2021/04/12 12:24:58;;;;;;;1.83;1.73;;;12.70;41.80;;;;;;5040653;28;21088;-41
2021/04/12 12:27:31;;;;;;;2.70;1.43;;;12.40;43.20;;;;;;5044588;28;20458;-41
2021/04/12 12:30:18;;;;;;;1.20;1.13;;;12.10;46.00;;;;;;5037920;28;20885;-41
2021/04/12 12:32:59;;;;;;;1.83;1.40;;;11.70;48.00;;;;;;5041737;28;20840;-41
2021/04/12 12:36:05;;;;;;;1.47;1.10;;;11.40;49.70;;;;;;5038692;28;20450;-41
2021/04/12 12:38:31;;;;;;;2.40;1.60;;;11.10;51.10;;;;;;5027316;28;20471;-41
2021/04/12 12:41:02;;;;;;;1.80;1.50;;;11.00;52.90;;;;;;5038330;28;20518;-41
2021/04/12 12:43:33;;;;;;;1.47;1.37;;;10.90;54.20;;;;;;5043756;28;20517;-41
2021/04/12 12:46:13;;;;;;;2.57;1.20;;;11.10;54.90;;;;;;5041465;28;20504;-41
2021/04/12 12:48:57;;;;;;;1.30;1.20;;;11.20;52.70;;;;;;5039584;28;20460;-41
2021/04/12 12:51:40;;;;;;;1.20;1.10;;;11.40;50.50;;;;;;5041669;28;20458;-41
2021/04/12 12:54:28;;;;;;;1.20;1.10;;;11.50;50.90;;;;;;5047224;28;20931;-41
2021/04/12 12:57:24;;;;;;;0.87;0.83;;;11.70;50.40;;;;;;5042693;28;20442;-41
2021/04/12 12:59:53;;;;;;;3.90;1.17;;;11.90;49.30;;;;;;5040941;28;20468;-41
2021/04/12 13:02:26;;;;;;;1.47;1.07;;;12.00;48.50;;;;;;5038066;28;20492;-41
2021/04/12 13:04:56;;;;;;;1.60;1.20;;;12.20;48.50;;;;;;5037866;28;20944;-41
2021/04/12 13:07:24;;;;;;;1.90;1.27;;;12.40;48.00;;;;;;5041197;28;20589;-41
2021/04/12 13:09:57;;;;;;;1.27;1.10;;;12.70;46.10;;;;;;5041887;28;20482;-41
2021/04/12 13:12:30;;;;;;;2.40;1.23;;;12.90;46.60;;;;;;5042292;28;20463;-41
2021/04/12 13:15:08;;;;;;;1.40;1.30;;;13.20;44.70;;;;;;5044305;28;20451;-41
2021/04/12 13:17:37;;;;;;;2.90;1.20;;;13.20;43.70;;;;;;5036319;28;20478;-41
2021/04/12 13:20:13;;;;;;;1.70;1.30;;;13.20;42.20;;;;;;5044892;28;20933;-41
2021/04/12 13:22:42;;;;;;;1.57;1.10;;;13.00;43.30;;;;;;5046630;28;20506;-42
2021/04/12 13:25:15;;;;;;;2.70;0.93;;;12.80;43.50;;;;;;5043028;28;20538;-41
2021/04/12 13:27:46;;;;;;;2.07;1.50;;;12.60;43.60;;;;;;5038210;28;20533;-41
2021/04/12 13:30:19;;;;;;;1.50;1.40;;;12.30;44.30;;;;;;5042476;28;20479;-41
2021/04/12 13:33:00;;;;;;;3.33;1.80;;;12.10;45.20;;;;;;5039116;28;20561;-41
2021/04/12 13:35:47;;;;;;;1.53;1.43;;;11.90;48.00;;;;;;5037403;28;20467;-41
2021/04/12 13:38:20;;;;;;;1.93;1.57;;;11.70;49.40;;;;;;5040661;28;20459;-41
2021/04/12 13:41:28;;;;;;;4.27;2.23;;;11.70;50.90;;;;;;5037135;28;20880;-41
2021/04/12 13:44:04;;;;;;;2.23;2.00;;;11.60;51.90;;;;;;5006733;28;20536;-41
2021/04/12 13:46:37;;;;;;;1.87;1.63;;;11.40;52.50;;;;;;5004876;28;20459;-41
2021/04/12 13:49:13;;;;;;;2.30;2.10;;;11.40;53.30;;;;;;5033031;28;20464;-41
2021/04/12 13:51:41;;;;;;;1.73;1.60;;;11.20;53.80;;;;;;5042377;28;20944;-41
2021/04/12 13:54:26;;;;;;;2.10;1.57;;;11.00;54.20;;;;;;5034466;28;20459;-41
2021/04/12 13:57:14;;;;;;;4.03;1.90;;;10.90;54.50;;;;;;5037376;28;20512;-42
2021/04/12 13:59:44;;;;;;;1.60;1.50;;;10.80;54.50;;;;;;5041643;28;20485;-40
2021/04/12 14:02:27;;;;;;;1.90;1.40;;;10.80;55.00;;;;;;5042109;28;20497;-41
2021/04/12 14:05:00;;;;;;;1.60;1.50;;;10.70;54.80;;;;;;5044720;28;20543;-40
2021/04/12 14:07:37;;;;;;;3.80;1.83;;;10.60;54.60;;;;;;5043218;28;20458;-41
2021/04/12 14:10:03;;;;;;;1.27;1.00;;;10.60;54.00;;;;;;5044603;28;20448;-41
2021/04/12 14:12:43;;;;;;;2.17;1.10;;;10.40;53.10;;;;;;5045266;28;20454;-40
2021/04/12 14:15:15;;;;;;;1.10;1.03;;;10.40;53.60;;;;;;5041857;28;20453;-41
2021/04/12 14:17:48;;;;;;;1.40;1.27;;;10.30;54.00;;;;;;5046482;28;20477;-40
2021/04/12 14:20:37;;;;;;;1.20;1.10;;;10.40;53.00;;;;;;5041231;28;20485;-40
2021/04/12 14:23:16;;;;;;;1.20;0.90;;;10.50;53.30;;;;;;5049785;28;20568;-41
2021/04/12 14:25:44;;;;;;;1.23;1.17;;;10.60;51.40;;;;;;5040822;28;20790;-41
2021/04/12 14:28:19;;;;;;;1.47;1.27;;;10.70;51.70;;;;;;5043980;28;20457;-40
2021/04/12 14:30:53;;;;;;;1.97;1.47;;;10.90;52.30;;;;;;5043046;28;20488;-41